createdAt,value
2019-05-03T00:02:12.291Z,62.19
2019-05-03T00:04:42.320Z,61.79
2019-05-03T00:07:11.821Z,61.55
2019-05-03T00:09:42.633Z,61.74
2019-05-03T00:12:12.641Z,61.65
2019-05-03T00:14:43.152Z,61.37
2019-05-03T00:17:12.569Z,61.29
2019-05-03T00:19:42.233Z,61.28
2019-05-03T00:22:12.386Z,61.28
2019-05-03T00:24:42.697Z,60.92
2019-05-03T00:27:12.498Z,60.87
2019-05-03T00:29:41.908Z,61.07
2019-05-03T00:32:12.501Z,60.91
2019-05-03T00:34:48.934Z,60.84
2019-05-03T00:37:22.214Z,60.83
2019-05-03T00:39:52.653Z,60.66
2019-05-03T00:42:22.511Z,60.59
2019-05-03T00:44:51.730Z,60.56
2019-05-03T00:47:22.214Z,60.64
2019-05-03T00:49:51.866Z,60.76
2019-05-03T00:52:22.385Z,60.84
2019-05-03T00:54:52.859Z,60.93
2019-05-03T00:57:22.755Z,60.89
2019-05-03T00:59:52.849Z,61.00
2019-05-03T01:02:22.325Z,61.03
2019-05-03T01:04:51.791Z,61.22
2019-05-03T01:07:22.274Z,61.04
2019-05-03T01:09:51.768Z,61.34
2019-05-03T01:12:21.936Z,61.35
2019-05-03T01:14:52.595Z,61.37
2019-05-03T01:17:22.425Z,61.46
2019-05-03T01:19:52.148Z,61.41
2019-05-03T01:22:22.596Z,61.47
2019-05-03T01:24:51.953Z,61.41
2019-05-03T01:27:21.983Z,61.54
2019-05-03T01:29:51.924Z,61.64
2019-05-03T01:32:22.242Z,61.81
2019-05-03T01:34:52.326Z,61.86
2019-05-03T01:37:22.692Z,61.94
2019-05-03T01:39:52.579Z,62.13
2019-05-03T01:42:22.596Z,62.24
2019-05-03T01:44:52.246Z,62.31
2019-05-03T01:47:22.731Z,62.41
2019-05-03T01:49:53.063Z,62.42
2019-05-03T01:52:23.463Z,62.42
2019-05-03T01:54:52.305Z,62.45
2019-05-03T01:57:22.067Z,62.54
2019-05-03T01:59:52.064Z,62.64
2019-05-03T02:02:28.301Z,62.63
2019-05-03T02:05:15.189Z,62.83
2019-05-03T02:07:43.976Z,62.99
2019-05-03T02:10:14.410Z,62.97
2019-05-03T02:12:43.091Z,63.03
2019-05-03T02:15:12.512Z,63.14
2019-05-03T02:17:42.715Z,63.24
2019-05-03T02:20:12.590Z,63.18
2019-05-03T02:22:42.805Z,63.33
2019-05-03T02:25:12.529Z,63.32
2019-05-03T02:27:42.197Z,63.44
2019-05-03T02:30:14.203Z,63.70
2019-05-03T02:32:44.154Z,63.80
2019-05-03T02:35:14.761Z,63.83
2019-05-03T02:37:45.507Z,63.59
2019-05-03T02:40:14.626Z,63.73
2019-05-03T02:42:46.341Z,63.76
2019-05-03T02:45:25.730Z,63.69
2019-05-03T02:47:55.558Z,63.72
2019-05-03T02:50:26.026Z,63.67
2019-05-03T02:52:55.327Z,63.61
2019-05-03T02:55:25.997Z,63.56
2019-05-03T02:57:56.236Z,63.67
2019-05-03T03:00:45.424Z,63.62
2019-05-03T03:03:16.015Z,63.51
2019-05-03T03:05:46.406Z,63.47
2019-05-03T03:08:18.225Z,63.42
2019-05-03T03:10:47.541Z,63.46
2019-05-03T03:13:17.708Z,63.38
2019-05-03T03:15:47.749Z,63.52
2019-05-03T03:18:16.873Z,63.55
2019-05-03T03:20:48.008Z,63.70
2019-05-03T03:23:18.854Z,63.73
2019-05-03T03:25:50.291Z,63.76
2019-05-03T03:28:21.659Z,63.68
2019-05-03T03:31:21.079Z,63.63
2019-05-03T03:33:49.672Z,63.72
2019-05-03T03:36:50.288Z,63.70
2019-05-03T03:38:48.596Z,63.72
2019-05-03T03:41:17.975Z,63.66
2019-05-03T03:43:48.322Z,63.69
2019-05-03T03:46:18.004Z,63.71
2019-05-03T03:48:47.312Z,63.77
2019-05-03T03:51:17.519Z,63.91
2019-05-03T03:53:48.082Z,63.83
2019-05-03T03:56:18.575Z,63.88
2019-05-03T03:58:48.970Z,64.03
2019-05-03T04:01:18.096Z,64.01
2019-05-03T04:03:46.997Z,63.95
2019-05-03T04:06:17.183Z,63.94
2019-05-03T04:08:45.885Z,64.00
2019-05-03T04:11:15.563Z,63.78
2019-05-03T04:13:45.858Z,63.90
2019-05-03T04:16:32.609Z,63.90
2019-05-03T04:19:17.386Z,63.95
2019-05-03T04:21:45.709Z,64.04
2019-05-03T04:24:16.331Z,63.98
2019-05-03T04:26:45.450Z,63.98
2019-05-03T04:29:16.083Z,64.02
2019-05-03T04:31:45.792Z,63.99
2019-05-03T04:34:16.232Z,64.05
2019-05-03T04:36:46.158Z,64.03
2019-05-03T04:39:19.657Z,64.24
2019-05-03T04:41:45.558Z,64.34
2019-05-03T04:44:15.499Z,64.21
2019-05-03T04:46:46.543Z,64.38
2019-05-03T04:49:15.193Z,64.35
2019-05-03T04:51:46.494Z,64.54
2019-05-03T04:54:25.521Z,64.55
2019-05-03T04:56:56.143Z,64.59
2019-05-03T04:59:25.408Z,64.65
2019-05-03T05:01:56.008Z,64.64
2019-05-03T05:04:25.432Z,64.46
2019-05-03T05:06:55.477Z,64.46
2019-05-03T05:09:25.840Z,64.31
2019-05-03T05:11:54.968Z,64.22
2019-05-03T05:14:25.880Z,63.92
2019-05-03T05:16:55.682Z,63.87
2019-05-03T05:19:29.343Z,63.66
2019-05-03T05:22:03.949Z,63.76
2019-05-03T05:24:34.651Z,63.93
2019-05-03T05:27:14.699Z,63.33
2019-05-03T05:29:45.071Z,63.27
2019-05-03T05:32:14.488Z,62.92
2019-05-03T05:34:43.326Z,62.63
2019-05-03T05:37:12.022Z,62.38
2019-05-03T05:39:40.689Z,62.03
2019-05-03T05:42:09.374Z,62.00
2019-05-03T05:44:38.069Z,61.81
2019-05-03T05:47:14.962Z,61.47
2019-05-03T05:49:45.473Z,61.20
2019-05-03T05:52:15.483Z,60.98
2019-05-03T05:54:45.923Z,60.74
2019-05-03T05:57:28.572Z,60.66
2019-05-03T05:59:58.882Z,60.78
2019-05-03T06:02:27.622Z,60.55
2019-05-03T06:04:56.372Z,60.44
2019-05-03T06:07:39.024Z,60.14
2019-05-03T06:10:10.282Z,60.11
2019-05-03T06:12:49.843Z,59.73
2019-05-03T06:15:38.706Z,59.57
2019-05-03T06:18:09.043Z,59.03
2019-05-03T06:20:55.475Z,59.29
2019-05-03T06:23:31.891Z,57.80
2019-05-03T06:26:00.761Z,57.82
2019-05-03T06:28:35.253Z,57.25
2019-05-03T06:33:45.294Z,56.24
2019-05-03T06:36:15.286Z,56.54
2019-05-03T06:38:44.757Z,56.50
2019-05-03T06:41:15.083Z,56.56
2019-05-03T06:43:47.157Z,56.89
2019-05-03T06:46:17.749Z,56.95
2019-05-03T06:48:44.830Z,56.29
2019-05-03T06:51:17.870Z,54.52
2019-05-03T06:53:48.988Z,55.04
2019-05-03T06:56:14.822Z,53.76
2019-05-03T06:58:44.896Z,52.19
2019-05-03T07:01:21.343Z,52.19
2019-05-03T07:03:57.435Z,50.60
2019-05-03T07:06:40.149Z,48.80
2019-05-03T07:09:16.075Z,46.23
2019-05-03T07:11:45.171Z,46.15
2019-05-03T07:14:15.566Z,43.59
2019-05-03T07:16:44.473Z,42.01
2019-05-03T07:19:14.760Z,41.27
2019-05-03T07:21:44.676Z,37.77
2019-05-03T07:24:14.655Z,37.77
2019-05-03T07:26:44.833Z,35.89
2019-05-03T07:29:15.256Z,33.92
2019-05-03T07:31:44.738Z,33.43
2019-05-03T07:34:15.423Z,32.10
2019-05-03T07:36:46.664Z,33.05
2019-05-03T07:39:15.352Z,31.55
2019-05-03T07:41:44.640Z,31.39
2019-05-03T07:44:15.204Z,31.98
2019-05-03T07:46:45.186Z,31.93
2019-05-03T07:49:15.356Z,32.42
2019-05-03T07:51:44.874Z,30.60
2019-05-03T07:54:15.541Z,29.05
2019-05-03T07:56:48.460Z,29.55
2019-05-03T07:59:17.164Z,30.01
2019-05-03T08:01:47.475Z,29.60
2019-05-03T08:04:16.210Z,29.07
2019-05-03T08:06:44.899Z,31.01
2019-05-03T08:09:15.289Z,30.79
2019-05-03T08:11:44.458Z,32.32
2019-05-03T08:14:16.063Z,33.65
2019-05-03T08:16:45.568Z,34.37
2019-05-03T08:19:15.184Z,33.17
2019-05-03T08:21:45.331Z,32.95
2019-05-03T08:24:14.916Z,33.59
2019-05-03T08:26:45.285Z,34.13
2019-05-03T08:29:18.635Z,33.65
2019-05-03T08:32:05.111Z,33.00
2019-05-03T08:34:41.839Z,32.23
2019-05-03T08:37:15.360Z,32.37
2019-05-03T08:39:44.771Z,33.20
2019-05-03T08:42:18.071Z,32.94
2019-05-03T08:44:46.758Z,33.30
2019-05-03T08:47:15.630Z,34.66
2019-05-03T08:49:44.999Z,32.48
2019-05-03T08:52:15.696Z,31.51
2019-05-03T08:54:44.997Z,30.55
2019-05-03T08:57:14.941Z,30.94
2019-05-03T08:59:44.600Z,29.43
2019-05-03T09:02:16.541Z,30.19
2019-05-03T09:04:45.921Z,29.54
2019-05-03T09:07:14.907Z,30.46
2019-05-03T09:09:55.054Z,30.71
2019-05-03T09:12:25.204Z,30.75
2019-05-03T09:14:54.623Z,31.59
2019-05-03T09:17:24.669Z,32.52
2019-05-03T09:19:54.797Z,33.91
2019-05-03T09:22:25.564Z,33.30
2019-05-03T09:24:54.700Z,32.32
2019-05-03T09:27:25.432Z,31.41
2019-05-03T09:29:55.832Z,31.24
2019-05-03T09:32:25.644Z,30.66
2019-05-03T09:34:55.155Z,30.49
2019-05-03T09:37:25.033Z,31.04
2019-05-03T09:39:55.197Z,32.08
2019-05-03T09:42:24.822Z,33.82
2019-05-03T09:44:55.467Z,37.75
2019-05-03T09:47:25.244Z,39.35
2019-05-03T09:49:55.860Z,40.26
2019-05-03T09:52:25.178Z,41.63
2019-05-03T09:54:55.500Z,41.93
2019-05-03T09:57:24.761Z,41.44
2019-05-03T09:59:59.187Z,41.45
2019-05-03T10:02:24.631Z,41.19
2019-05-03T10:04:55.419Z,41.14
2019-05-03T10:07:25.780Z,41.29
2019-05-03T10:09:55.217Z,40.30
2019-05-03T10:12:25.670Z,40.29
2019-05-03T10:14:54.933Z,38.21
2019-05-03T10:17:35.107Z,37.15
2019-05-03T10:20:08.486Z,34.94
2019-05-03T10:22:37.234Z,35.41
2019-05-03T10:25:07.548Z,32.60
2019-05-03T10:27:37.943Z,31.63
2019-05-03T10:30:12.461Z,34.41
2019-05-03T10:32:39.340Z,34.36
2019-05-03T10:35:09.727Z,33.96
2019-05-03T10:37:38.390Z,33.84
2019-05-03T10:40:08.275Z,33.50
2019-05-03T10:42:37.058Z,35.39
2019-05-03T10:45:07.087Z,37.30
2019-05-03T10:47:35.839Z,38.57
2019-05-03T10:50:07.805Z,38.63
2019-05-03T10:52:44.829Z,37.28
2019-05-03T10:55:15.730Z,36.26
2019-05-03T10:57:45.730Z,34.41
2019-05-03T11:00:41.733Z,35.18
2019-05-03T11:02:57.588Z,35.55
2019-05-03T11:05:26.325Z,36.92
2019-05-03T11:07:55.624Z,36.66
2019-05-03T11:10:25.305Z,36.95
2019-05-03T11:12:54.830Z,37.68
2019-05-03T11:15:25.866Z,36.19
2019-05-03T11:17:54.876Z,34.70
2019-05-03T11:20:37.281Z,33.85
2019-05-03T11:23:07.375Z,32.24
2019-05-03T11:25:36.917Z,30.35
2019-05-03T11:28:17.468Z,28.83
2019-05-03T11:30:53.562Z,29.26
2019-05-03T11:33:35.231Z,28.69
2019-05-03T11:36:20.781Z,29.02
2019-05-03T11:38:49.553Z,30.30
2019-05-03T11:41:29.366Z,28.52
2019-05-03T11:43:48.739Z,29.37
2019-05-03T11:46:17.468Z,30.04
2019-05-03T11:48:46.239Z,30.37
2019-05-03T11:51:15.272Z,30.48
2019-05-03T11:53:45.008Z,29.97
2019-05-03T11:56:14.842Z,30.76
2019-05-03T11:58:45.675Z,29.65
2019-05-03T12:01:19.654Z,30.65
2019-05-03T12:03:47.942Z,31.13
2019-05-03T12:06:16.669Z,32.36
2019-05-03T12:08:45.425Z,33.14
2019-05-03T12:11:15.087Z,33.15
2019-05-03T12:13:45.672Z,34.30
2019-05-03T12:16:22.129Z,37.08
2019-05-03T12:18:53.008Z,37.08
2019-05-03T12:21:18.057Z,37.47
2019-05-03T12:23:47.015Z,36.96
2019-05-03T12:26:17.316Z,37.04
2019-05-03T12:28:46.707Z,35.91
2019-05-03T12:31:29.639Z,35.83
2019-05-03T12:33:46.200Z,35.41
2019-05-03T12:36:15.491Z,35.76
2019-05-03T12:38:47.386Z,34.90
2019-05-03T12:41:16.093Z,32.90
2019-05-03T12:43:47.760Z,33.14
2019-05-03T12:46:16.954Z,33.99
2019-05-03T12:48:45.677Z,33.16
2019-05-03T12:51:15.177Z,31.73
2019-05-03T12:53:44.465Z,32.63
2019-05-03T12:56:16.167Z,33.62
2019-05-03T12:59:00.400Z,34.57
2019-05-03T13:01:41.566Z,34.81
2019-05-03T13:04:11.766Z,34.04
2019-05-03T13:06:42.113Z,34.74
2019-05-03T13:09:11.142Z,34.35
2019-05-03T13:11:52.990Z,34.44
2019-05-03T13:14:12.133Z,35.01
2019-05-03T13:16:40.880Z,34.41
2019-05-03T13:19:09.568Z,34.79
2019-05-03T13:21:38.256Z,33.98
2019-05-03T13:24:06.906Z,32.91
2019-05-03T13:26:35.694Z,30.63
2019-05-03T13:29:05.875Z,30.70
2019-05-03T13:31:34.912Z,30.47
2019-05-03T13:34:05.539Z,31.42
2019-05-03T13:36:34.871Z,30.79
2019-05-03T13:39:13.272Z,31.52
2019-05-03T13:41:36.038Z,31.52
2019-05-03T13:44:05.257Z,32.01
2019-05-03T13:46:35.281Z,32.32
2019-05-03T13:49:05.404Z,32.75
2019-05-03T13:51:38.165Z,32.46
2019-05-03T13:54:09.986Z,31.95
2019-05-03T13:56:40.154Z,32.67
2019-05-03T13:59:18.926Z,31.89
2019-05-03T14:01:39.299Z,32.81
2019-05-03T14:04:08.054Z,32.81
2019-05-03T14:06:38.218Z,33.37
2019-05-03T14:09:12.039Z,33.65
2019-05-03T14:11:44.664Z,33.57
2019-05-03T14:14:15.206Z,34.03
2019-05-03T14:16:45.152Z,35.02
2019-05-03T14:19:15.680Z,34.95
2019-05-03T14:21:48.895Z,35.74
2019-05-03T14:24:17.559Z,35.49
2019-05-03T14:26:46.318Z,34.78
2019-05-03T14:29:15.198Z,35.34
2019-05-03T14:31:45.427Z,35.66
2019-05-03T14:34:17.036Z,35.64
2019-05-03T14:36:45.035Z,35.07
2019-05-03T14:39:15.013Z,35.22
2019-05-03T14:41:46.494Z,34.95
2019-05-03T14:44:17.851Z,35.96
2019-05-03T14:46:45.840Z,35.13
2019-05-03T14:49:14.944Z,35.28
2019-05-03T14:51:45.594Z,34.83
2019-05-03T14:54:14.639Z,35.15
2019-05-03T14:56:56.176Z,35.34
2019-05-03T14:59:42.631Z,35.60
2019-05-03T15:05:05.360Z,36.33
2019-05-03T15:07:35.158Z,36.86
2019-05-03T15:10:05.755Z,36.32
2019-05-03T15:12:35.969Z,35.27
2019-05-03T15:15:07.560Z,35.04
2019-05-03T15:17:36.246Z,34.96
2019-05-03T15:20:07.856Z,34.25
2019-05-03T15:22:36.568Z,33.68
2019-05-03T15:25:06.646Z,33.38
2019-05-03T15:27:35.502Z,34.09
2019-05-03T15:30:05.904Z,34.30
2019-05-03T15:32:35.366Z,34.81
2019-05-03T15:35:06.537Z,34.78
2019-05-03T15:37:36.499Z,34.56
2019-05-03T15:40:08.658Z,34.61
2019-05-03T15:42:38.951Z,35.33
2019-05-03T15:45:25.763Z,34.84
2019-05-03T15:48:15.264Z,34.78
2019-05-03T15:50:44.679Z,34.50
2019-05-03T15:53:15.142Z,34.25
2019-05-03T15:55:43.953Z,34.63
2019-05-03T15:58:12.608Z,33.69
2019-05-03T16:00:41.394Z,32.81
2019-05-03T16:03:11.238Z,34.18
2019-05-03T16:05:40.098Z,34.83
2019-05-03T16:08:10.215Z,34.22
2019-05-03T16:10:38.911Z,34.31
2019-05-03T16:13:07.755Z,34.44
2019-05-03T16:15:36.459Z,33.82
2019-05-03T16:18:08.419Z,33.65
2019-05-03T16:20:39.397Z,32.87
2019-05-03T16:23:08.439Z,33.45
2019-05-03T16:25:38.145Z,32.66
2019-05-03T16:28:11.161Z,33.04
2019-05-03T16:30:41.712Z,33.05
2019-05-03T16:33:25.593Z,33.81
2019-05-03T16:35:40.854Z,34.42
2019-05-03T16:38:09.537Z,34.93
2019-05-03T16:40:39.246Z,34.54
2019-05-03T16:43:07.970Z,35.49
2019-05-03T16:45:36.739Z,35.73
2019-05-03T16:48:05.441Z,36.18
2019-05-03T16:50:34.595Z,36.33
2019-05-03T16:53:05.425Z,36.40
2019-05-03T16:55:35.164Z,36.18
2019-05-03T16:58:04.072Z,37.45
2019-05-03T17:00:32.758Z,36.90
2019-05-03T17:03:01.424Z,37.26
2019-05-03T17:05:37.917Z,37.48
2019-05-03T17:08:14.668Z,37.70
2019-05-03T17:10:45.731Z,37.90
2019-05-03T17:13:15.883Z,37.50
2019-05-03T17:15:44.789Z,37.63
2019-05-03T17:18:14.723Z,37.48
2019-05-03T17:20:45.335Z,37.97
2019-05-03T17:23:15.455Z,38.12
2019-05-03T17:25:44.590Z,38.59
2019-05-03T17:28:13.296Z,38.55
2019-05-03T17:30:42.004Z,39.08
2019-05-03T17:33:10.669Z,39.00
2019-05-03T17:35:39.380Z,39.26
2019-05-03T17:38:08.110Z,39.47
2019-05-03T17:40:41.201Z,39.68
2019-05-03T17:43:17.514Z,39.75
2019-05-03T17:45:50.707Z,40.39
2019-05-03T17:48:19.433Z,42.24
2019-05-03T17:50:48.154Z,43.90
2019-05-03T17:56:06.677Z,45.36
2019-05-03T17:58:44.353Z,46.37
2019-05-03T18:01:23.766Z,46.69
2019-05-03T18:04:05.725Z,46.94
2019-05-03T18:06:26.276Z,46.77
2019-05-03T18:08:56.821Z,47.30
2019-05-03T18:11:27.131Z,47.65
2019-05-03T18:13:55.904Z,47.81
2019-05-03T18:16:24.646Z,48.34
2019-05-03T18:18:54.739Z,48.47
2019-05-03T18:21:24.493Z,48.56
2019-05-03T18:23:54.513Z,48.91
2019-05-03T18:26:24.952Z,49.98
2019-05-03T18:28:55.337Z,50.15
2019-05-03T18:31:25.069Z,50.85
2019-05-03T18:33:54.787Z,50.45
2019-05-03T18:36:25.240Z,50.49
2019-05-03T18:38:55.212Z,50.57
2019-05-03T18:41:25.511Z,50.42
2019-05-03T18:43:58.981Z,49.81
2019-05-03T18:46:29.312Z,49.32
2019-05-03T18:48:58.202Z,48.88
2019-05-03T18:51:26.945Z,49.20
2019-05-03T18:53:57.410Z,49.08
2019-05-03T18:56:26.143Z,49.13
2019-05-03T18:58:54.913Z,48.24
2019-05-03T19:01:25.290Z,48.41
2019-05-03T19:03:55.874Z,48.41
2019-05-03T19:06:24.614Z,48.58
2019-05-03T19:09:11.161Z,48.86
2019-05-03T19:11:44.565Z,48.94
2019-05-03T19:14:17.639Z,50.67
2019-05-03T19:16:57.154Z,51.58
2019-05-03T19:19:30.245Z,52.56
2019-05-03T19:21:58.977Z,53.41
2019-05-03T19:24:27.674Z,54.07
2019-05-03T19:26:56.341Z,56.34
2019-05-03T19:29:25.134Z,58.36
2019-05-03T19:31:55.246Z,58.86
2019-05-03T19:34:26.854Z,59.53
2019-05-03T19:36:54.903Z,59.40
2019-05-03T19:39:25.242Z,59.29
2019-05-03T19:41:55.312Z,59.63
2019-05-03T19:44:24.187Z,59.53
2019-05-03T19:46:53.003Z,59.47
2019-05-03T19:49:21.737Z,59.22
2019-05-03T19:51:50.495Z,59.21
2019-05-03T19:54:22.255Z,59.22
2019-05-03T19:56:50.946Z,59.51
2019-05-03T19:59:37.685Z,59.44
2019-05-03T20:02:11.016Z,59.79
2019-05-03T20:04:41.303Z,59.57
2019-05-03T20:07:20.931Z,59.83
2019-05-03T20:09:49.675Z,59.76
2019-05-03T20:12:18.838Z,59.82
2019-05-03T20:14:49.507Z,60.07
2019-05-03T20:17:18.003Z,60.12
2019-05-03T20:19:46.667Z,59.92
2019-05-03T20:22:15.378Z,60.08
2019-05-03T20:24:44.726Z,60.03
2019-05-03T20:27:15.111Z,59.96
2019-05-03T20:29:46.129Z,59.99
2019-05-03T20:32:15.897Z,59.70
2019-05-03T20:34:44.769Z,59.76
2019-05-03T20:37:14.689Z,59.69
2019-05-03T20:39:43.492Z,59.44
2019-05-03T20:42:15.359Z,59.01
2019-05-03T20:44:45.761Z,59.24
2019-05-03T20:47:21.787Z,58.94
2019-05-03T20:50:08.284Z,58.97
2019-05-03T20:52:37.241Z,59.25
2019-05-03T20:55:06.036Z,59.62
2019-05-03T20:57:35.275Z,59.79
2019-05-03T21:00:06.560Z,59.74
2019-05-03T21:02:35.252Z,59.59
2019-05-03T21:05:09.156Z,59.24
2019-05-03T21:07:37.943Z,59.16
2019-05-03T21:10:08.011Z,59.32
2019-05-03T21:12:36.762Z,59.17
2019-05-03T21:15:08.606Z,59.22
2019-05-03T21:17:47.786Z,59.09
2019-05-03T21:20:26.968Z,58.88
2019-05-03T21:22:55.732Z,58.87
2019-05-03T21:25:36.548Z,58.67
2019-05-03T21:28:05.492Z,58.77
2019-05-03T21:30:35.210Z,58.71
2019-05-03T21:33:05.449Z,59.01
2019-05-03T21:35:41.437Z,58.97
2019-05-03T21:38:04.680Z,58.96
2019-05-03T21:40:34.903Z,58.89
2019-05-03T21:43:04.859Z,58.83
2019-05-03T21:45:45.322Z,58.94
2019-05-03T21:48:15.811Z,58.83
2019-05-03T21:50:44.730Z,58.88
2019-05-03T21:53:14.726Z,58.96
2019-05-03T21:55:45.688Z,59.36
2019-05-03T21:58:16.391Z,59.58
2019-05-03T22:00:47.962Z,59.69
2019-05-03T22:03:16.654Z,59.53
2019-05-03T22:05:54.501Z,59.75
2019-05-03T22:08:16.184Z,59.76
2019-05-03T22:10:45.129Z,59.82
2019-05-03T22:13:15.396Z,60.06
2019-05-03T22:15:51.588Z,59.93
2019-05-03T22:18:24.907Z,59.95
2019-05-03T22:21:01.048Z,59.83
2019-05-03T22:23:31.363Z,59.79
2019-05-03T22:26:02.559Z,60.08
2019-05-03T22:28:31.322Z,60.69
2019-05-03T22:31:00.054Z,60.80
2019-05-03T22:33:29.174Z,60.94
2019-05-03T22:36:08.235Z,60.95
2019-05-03T22:38:28.532Z,60.96
2019-05-03T22:40:58.719Z,60.89
2019-05-03T22:43:27.490Z,61.13
2019-05-03T22:45:58.288Z,61.30
2019-05-03T22:48:27.014Z,61.48
2019-05-03T22:50:56.036Z,61.62
2019-05-03T22:53:25.441Z,61.43
2019-05-03T22:55:54.400Z,61.68
2019-05-03T22:58:24.898Z,61.82
2019-05-03T23:00:55.065Z,62.20
2019-05-03T23:03:24.978Z,62.22
2019-05-03T23:05:54.827Z,62.89
2019-05-03T23:08:25.284Z,63.11
2019-05-03T23:10:54.717Z,63.15
2019-05-03T23:13:24.931Z,63.08
2019-05-03T23:15:54.667Z,62.77
2019-05-03T23:18:24.674Z,62.69
2019-05-03T23:20:58.026Z,62.54
2019-05-03T23:23:45.552Z,62.47
2019-05-03T23:26:14.822Z,62.73
2019-05-03T23:28:45.290Z,62.84
2019-05-03T23:31:14.707Z,62.77
2019-05-03T23:33:45.267Z,62.87
2019-05-03T23:36:15.401Z,63.09
2019-05-03T23:38:45.272Z,62.94
2019-05-03T23:41:15.287Z,63.00
2019-05-03T23:43:45.059Z,62.93
2019-05-03T23:46:15.340Z,63.13
2019-05-03T23:48:44.688Z,63.17
2019-05-03T23:51:15.280Z,63.44
2019-05-03T23:53:44.630Z,63.52
2019-05-03T23:56:21.057Z,63.49
2019-05-03T23:58:49.778Z,63.57
